sensor_id;sensor_type;location;lat;lon;timestamp;P1;durP1;ratioP1;P2;durP2;ratioP2
76714;SDS011;65644;44.990;20.288;2023-09-12T00:01:08;10.35;;;7.97;;
76714;SDS011;65644;44.990;20.288;2023-09-12T00:03:34;10.10;;;8.63;;
76714;SDS011;65644;44.990;20.288;2023-09-12T00:06:01;12.73;;;8.65;;
76714;SDS011;65644;44.990;20.288;2023-09-12T00:08:27;11.02;;;8.63;;
76714;SDS011;65644;44.990;20.288;2023-09-12T00:13:25;15.48;;;9.10;;
76714;SDS011;65644;44.990;20.288;2023-09-12T00:15:51;12.30;;;9.00;;
76714;SDS011;65644;44.990;20.288;2023-09-12T00:18:17;12.07;;;8.68;;
76714;SDS011;65644;44.990;20.288;2023-09-12T00:20:44;30.45;;;9.45;;
76714;SDS011;65644;44.990;20.288;2023-09-12T00:23:10;12.48;;;8.90;;
76714;SDS011;65644;44.990;20.288;2023-09-12T00:25:36;13.45;;;9.32;;
76714;SDS011;65644;44.990;20.288;2023-09-12T00:28:02;11.00;;;8.82;;
76714;SDS011;65644;44.990;20.288;2023-09-12T00:30:28;14.32;;;9.05;;
76714;SDS011;65644;44.990;20.288;2023-09-12T00:32:54;10.95;;;8.63;;
76714;SDS011;65644;44.990;20.288;2023-09-12T00:35:20;9.98;;;8.55;;
76714;SDS011;65644;44.990;20.288;2023-09-12T00:37:46;13.85;;;9.38;;
76714;SDS011;65644;44.990;20.288;2023-09-12T00:40:12;12.65;;;9.45;;
76714;SDS011;65644;44.990;20.288;2023-09-12T00:42:38;14.45;;;8.90;;
76714;SDS011;65644;44.990;20.288;2023-09-12T00:45:04;13.75;;;9.10;;
76714;SDS011;65644;44.990;20.288;2023-09-12T00:47:30;14.18;;;8.60;;
76714;SDS011;65644;44.990;20.288;2023-09-12T00:49:56;14.05;;;8.65;;
76714;SDS011;65644;44.990;20.288;2023-09-12T00:52:26;12.75;;;8.98;;
76714;SDS011;65644;44.990;20.288;2023-09-12T00:54:53;15.18;;;9.88;;
76714;SDS011;65644;44.990;20.288;2023-09-12T00:57:19;11.80;;;8.10;;
76714;SDS011;65644;44.990;20.288;2023-09-12T00:59:46;18.10;;;9.75;;
76714;SDS011;65644;44.990;20.288;2023-09-12T01:02:12;12.73;;;9.48;;
76714;SDS011;65644;44.990;20.288;2023-09-12T01:04:39;14.68;;;9.25;;
76714;SDS011;65644;44.990;20.288;2023-09-12T01:07:05;12.85;;;9.35;;
76714;SDS011;65644;44.990;20.288;2023-09-12T01:09:32;12.10;;;8.98;;
76714;SDS011;65644;44.990;20.288;2023-09-12T01:11:59;9.93;;;8.90;;
76714;SDS011;65644;44.990;20.288;2023-09-12T01:14:27;15.70;;;9.80;;
76714;SDS011;65644;44.990;20.288;2023-09-12T01:16:54;12.27;;;9.15;;
76714;SDS011;65644;44.990;20.288;2023-09-12T01:19:20;15.88;;;9.68;;
76714;SDS011;65644;44.990;20.288;2023-09-12T01:27:19;11.57;;;9.48;;
76714;SDS011;65644;44.990;20.288;2023-09-12T01:29:46;11.40;;;10.05;;
76714;SDS011;65644;44.990;20.288;2023-09-12T01:32:14;15.77;;;9.77;;
76714;SDS011;65644;44.990;20.288;2023-09-12T01:34:40;14.48;;;8.52;;
76714;SDS011;65644;44.990;20.288;2023-09-12T01:37:06;12.73;;;8.52;;
76714;SDS011;65644;44.990;20.288;2023-09-12T01:39:32;15.93;;;9.70;;
76714;SDS011;65644;44.990;20.288;2023-09-12T01:41:58;12.13;;;9.20;;
76714;SDS011;65644;44.990;20.288;2023-09-12T01:44:25;12.98;;;9.00;;
76714;SDS011;65644;44.990;20.288;2023-09-12T01:46:53;11.48;;;9.05;;
76714;SDS011;65644;44.990;20.288;2023-09-12T01:49:21;15.35;;;9.52;;
76714;SDS011;65644;44.990;20.288;2023-09-12T01:51:48;12.82;;;9.45;;
76714;SDS011;65644;44.990;20.288;2023-09-12T01:54:14;11.57;;;9.68;;
76714;SDS011;65644;44.990;20.288;2023-09-12T01:56:40;12.80;;;8.98;;
76714;SDS011;65644;44.990;20.288;2023-09-12T01:59:07;12.80;;;8.90;;
76714;SDS011;65644;44.990;20.288;2023-09-12T02:01:33;12.35;;;9.18;;
76714;SDS011;65644;44.990;20.288;2023-09-12T02:03:59;13.88;;;8.90;;
76714;SDS011;65644;44.990;20.288;2023-09-12T02:06:25;11.05;;;8.80;;
76714;SDS011;65644;44.990;20.288;2023-09-12T02:08:52;12.63;;;8.88;;
76714;SDS011;65644;44.990;20.288;2023-09-12T02:11:18;14.90;;;9.30;;
76714;SDS011;65644;44.990;20.288;2023-09-12T02:13:44;11.77;;;9.68;;
76714;SDS011;65644;44.990;20.288;2023-09-12T02:16:10;11.40;;;8.82;;
76714;SDS011;65644;44.990;20.288;2023-09-12T02:18:36;21.10;;;9.23;;
76714;SDS011;65644;44.990;20.288;2023-09-12T02:21:02;16.40;;;8.77;;
76714;SDS011;65644;44.990;20.288;2023-09-12T02:23:28;15.55;;;8.57;;
76714;SDS011;65644;44.990;20.288;2023-09-12T02:25:55;10.52;;;8.35;;
76714;SDS011;65644;44.990;20.288;2023-09-12T02:28:21;14.23;;;9.52;;
76714;SDS011;65644;44.990;20.288;2023-09-12T02:30:47;14.73;;;9.75;;
76714;SDS011;65644;44.990;20.288;2023-09-12T02:33:13;13.02;;;9.20;;
76714;SDS011;65644;44.990;20.288;2023-09-12T02:35:39;14.35;;;9.90;;
76714;SDS011;65644;44.990;20.288;2023-09-12T02:38:05;12.93;;;9.52;;
76714;SDS011;65644;44.990;20.288;2023-09-12T02:40:32;16.08;;;9.40;;
76714;SDS011;65644;44.990;20.288;2023-09-12T02:42:58;14.77;;;9.93;;
76714;SDS011;65644;44.990;20.288;2023-09-12T02:45:24;17.75;;;9.32;;
76714;SDS011;65644;44.990;20.288;2023-09-12T02:47:50;12.98;;;9.95;;
76714;SDS011;65644;44.990;20.288;2023-09-12T02:50:16;12.93;;;9.38;;
76714;SDS011;65644;44.990;20.288;2023-09-12T02:52:42;11.52;;;9.25;;
76714;SDS011;65644;44.990;20.288;2023-09-12T02:55:08;12.10;;;9.38;;
76714;SDS011;65644;44.990;20.288;2023-09-12T02:57:34;13.90;;;9.00;;
76714;SDS011;65644;44.990;20.288;2023-09-12T03:00:00;18.00;;;9.85;;
76714;SDS011;65644;44.990;20.288;2023-09-12T03:02:26;12.70;;;9.20;;
76714;SDS011;65644;44.990;20.288;2023-09-12T03:04:54;12.15;;;9.48;;
76714;SDS011;65644;44.990;20.288;2023-09-12T03:07:20;13.02;;;9.70;;
76714;SDS011;65644;44.990;20.288;2023-09-12T03:09:49;12.10;;;9.60;;
76714;SDS011;65644;44.990;20.288;2023-09-12T03:12:16;13.80;;;10.05;;
76714;SDS011;65644;44.990;20.288;2023-09-12T03:14:42;10.15;;;8.57;;
76714;SDS011;65644;44.990;20.288;2023-09-12T03:17:08;13.55;;;10.20;;
76714;SDS011;65644;44.990;20.288;2023-09-12T03:19:34;12.93;;;8.82;;
76714;SDS011;65644;44.990;20.288;2023-09-12T03:22:00;14.93;;;9.90;;
76714;SDS011;65644;44.990;20.288;2023-09-12T03:24:26;14.10;;;10.05;;
76714;SDS011;65644;44.990;20.288;2023-09-12T03:26:53;14.70;;;9.43;;
76714;SDS011;65644;44.990;20.288;2023-09-12T03:29:20;14.48;;;9.65;;
76714;SDS011;65644;44.990;20.288;2023-09-12T03:31:46;17.15;;;10.73;;
76714;SDS011;65644;44.990;20.288;2023-09-12T03:34:12;15.48;;;10.30;;
76714;SDS011;65644;44.990;20.288;2023-09-12T03:36:38;18.40;;;10.20;;
76714;SDS011;65644;44.990;20.288;2023-09-12T03:39:04;19.63;;;11.00;;
76714;SDS011;65644;44.990;20.288;2023-09-12T03:41:33;20.38;;;10.48;;
76714;SDS011;65644;44.990;20.288;2023-09-12T03:43:59;16.90;;;11.20;;
76714;SDS011;65644;44.990;20.288;2023-09-12T03:46:25;19.45;;;11.43;;
76714;SDS011;65644;44.990;20.288;2023-09-12T03:48:51;16.60;;;10.95;;
76714;SDS011;65644;44.990;20.288;2023-09-12T03:51:18;14.82;;;10.75;;
76714;SDS011;65644;44.990;20.288;2023-09-12T03:53:44;17.88;;;10.50;;
76714;SDS011;65644;44.990;20.288;2023-09-12T03:56:12;17.10;;;11.20;;
76714;SDS011;65644;44.990;20.288;2023-09-12T03:58:39;18.00;;;10.90;;
76714;SDS011;65644;44.990;20.288;2023-09-12T04:01:05;19.33;;;11.00;;
76714;SDS011;65644;44.990;20.288;2023-09-12T04:03:32;15.38;;;10.98;;
76714;SDS011;65644;44.990;20.288;2023-09-12T04:05:58;19.17;;;10.57;;
76714;SDS011;65644;44.990;20.288;2023-09-12T04:08:24;15.80;;;10.98;;
76714;SDS011;65644;44.990;20.288;2023-09-12T04:10:50;23.60;;;10.68;;
76714;SDS011;65644;44.990;20.288;2023-09-12T04:13:16;18.55;;;10.52;;
76714;SDS011;65644;44.990;20.288;2023-09-12T04:15:42;12.30;;;9.52;;
76714;SDS011;65644;44.990;20.288;2023-09-12T04:18:08;16.63;;;9.35;;
76714;SDS011;65644;44.990;20.288;2023-09-12T04:20:34;21.67;;;10.13;;
76714;SDS011;65644;44.990;20.288;2023-09-12T04:23:01;14.18;;;10.07;;
76714;SDS011;65644;44.990;20.288;2023-09-12T04:25:30;20.38;;;10.20;;
76714;SDS011;65644;44.990;20.288;2023-09-12T04:27:56;16.75;;;9.25;;
76714;SDS011;65644;44.990;20.288;2023-09-12T04:30:22;14.18;;;9.10;;
76714;SDS011;65644;44.990;20.288;2023-09-12T04:32:48;14.25;;;9.60;;
76714;SDS011;65644;44.990;20.288;2023-09-12T04:35:14;16.00;;;8.45;;
76714;SDS011;65644;44.990;20.288;2023-09-12T04:37:40;18.13;;;9.25;;
76714;SDS011;65644;44.990;20.288;2023-09-12T04:40:07;13.13;;;8.90;;
76714;SDS011;65644;44.990;20.288;2023-09-12T04:42:33;16.40;;;9.35;;
76714;SDS011;65644;44.990;20.288;2023-09-12T04:44:59;16.17;;;9.05;;
76714;SDS011;65644;44.990;20.288;2023-09-12T04:47:25;12.48;;;8.05;;
76714;SDS011;65644;44.990;20.288;2023-09-12T04:49:52;11.55;;;7.70;;
76714;SDS011;65644;44.990;20.288;2023-09-12T04:52:18;11.02;;;8.90;;
76714;SDS011;65644;44.990;20.288;2023-09-12T04:54:44;12.95;;;8.45;;
76714;SDS011;65644;44.990;20.288;2023-09-12T04:57:10;13.55;;;8.18;;
76714;SDS011;65644;44.990;20.288;2023-09-12T04:59:37;10.18;;;7.47;;
76714;SDS011;65644;44.990;20.288;2023-09-12T05:02:03;12.93;;;7.95;;
76714;SDS011;65644;44.990;20.288;2023-09-12T05:04:29;12.60;;;8.25;;
76714;SDS011;65644;44.990;20.288;2023-09-12T05:06:55;14.30;;;8.10;;
76714;SDS011;65644;44.990;20.288;2023-09-12T05:09:21;13.63;;;8.02;;
76714;SDS011;65644;44.990;20.288;2023-09-12T05:11:47;11.02;;;7.80;;
76714;SDS011;65644;44.990;20.288;2023-09-12T05:14:13;12.77;;;8.25;;
76714;SDS011;65644;44.990;20.288;2023-09-12T05:16:39;14.27;;;8.07;;
76714;SDS011;65644;44.990;20.288;2023-09-12T05:19:05;14.43;;;8.32;;
76714;SDS011;65644;44.990;20.288;2023-09-12T05:21:31;14.95;;;8.43;;
76714;SDS011;65644;44.990;20.288;2023-09-12T05:23:57;10.93;;;7.80;;
76714;SDS011;65644;44.990;20.288;2023-09-12T05:26:23;11.45;;;7.13;;
76714;SDS011;65644;44.990;20.288;2023-09-12T05:28:50;13.70;;;8.15;;
76714;SDS011;65644;44.990;20.288;2023-09-12T05:31:16;14.43;;;8.38;;
76714;SDS011;65644;44.990;20.288;2023-09-12T05:33:42;14.85;;;7.75;;
76714;SDS011;65644;44.990;20.288;2023-09-12T05:36:08;12.10;;;7.70;;
76714;SDS011;65644;44.990;20.288;2023-09-12T05:38:34;13.32;;;7.75;;
76714;SDS011;65644;44.990;20.288;2023-09-12T05:41:00;13.73;;;7.65;;
76714;SDS011;65644;44.990;20.288;2023-09-12T05:43:27;12.98;;;7.95;;
76714;SDS011;65644;44.990;20.288;2023-09-12T05:45:53;11.68;;;7.38;;
76714;SDS011;65644;44.990;20.288;2023-09-12T05:48:19;13.65;;;8.32;;
76714;SDS011;65644;44.990;20.288;2023-09-12T05:50:45;12.88;;;7.40;;
76714;SDS011;65644;44.990;20.288;2023-09-12T05:53:11;13.98;;;7.40;;
76714;SDS011;65644;44.990;20.288;2023-09-12T05:55:37;10.95;;;6.93;;
76714;SDS011;65644;44.990;20.288;2023-09-12T05:58:03;9.35;;;7.05;;
76714;SDS011;65644;44.990;20.288;2023-09-12T06:00:30;10.00;;;7.32;;
76714;SDS011;65644;44.990;20.288;2023-09-12T06:02:57;11.65;;;7.25;;
76714;SDS011;65644;44.990;20.288;2023-09-12T06:05:23;7.72;;;6.93;;
76714;SDS011;65644;44.990;20.288;2023-09-12T06:07:49;10.10;;;7.18;;
76714;SDS011;65644;44.990;20.288;2023-09-12T06:10:15;11.10;;;7.10;;
76714;SDS011;65644;44.990;20.288;2023-09-12T06:12:41;9.65;;;6.88;;
76714;SDS011;65644;44.990;20.288;2023-09-12T06:15:07;13.80;;;6.93;;
76714;SDS011;65644;44.990;20.288;2023-09-12T06:17:33;11.02;;;7.28;;
76714;SDS011;65644;44.990;20.288;2023-09-12T06:19:59;9.27;;;6.65;;
76714;SDS011;65644;44.990;20.288;2023-09-12T06:22:25;9.52;;;6.47;;
76714;SDS011;65644;44.990;20.288;2023-09-12T06:24:52;8.80;;;6.32;;
76714;SDS011;65644;44.990;20.288;2023-09-12T06:27:18;10.77;;;6.60;;
76714;SDS011;65644;44.990;20.288;2023-09-12T06:29:44;12.73;;;7.50;;
76714;SDS011;65644;44.990;20.288;2023-09-12T06:32:13;6.88;;;6.10;;
76714;SDS011;65644;44.990;20.288;2023-09-12T06:34:39;12.75;;;6.90;;
76714;SDS011;65644;44.990;20.288;2023-09-12T06:37:05;9.88;;;6.60;;
76714;SDS011;65644;44.990;20.288;2023-09-12T06:39:31;10.68;;;6.20;;
76714;SDS011;65644;44.990;20.288;2023-09-12T06:41:57;10.70;;;6.70;;
76714;SDS011;65644;44.990;20.288;2023-09-12T06:44:23;9.02;;;6.72;;
76714;SDS011;65644;44.990;20.288;2023-09-12T06:46:49;9.75;;;6.78;;
76714;SDS011;65644;44.990;20.288;2023-09-12T06:49:15;14.40;;;7.10;;
76714;SDS011;65644;44.990;20.288;2023-09-12T06:51:41;11.75;;;6.85;;
76714;SDS011;65644;44.990;20.288;2023-09-12T06:54:07;15.38;;;7.18;;
76714;SDS011;65644;44.990;20.288;2023-09-12T06:56:33;12.80;;;6.32;;
76714;SDS011;65644;44.990;20.288;2023-09-12T06:59:02;11.20;;;6.43;;
76714;SDS011;65644;44.990;20.288;2023-09-12T07:01:29;8.82;;;6.05;;
76714;SDS011;65644;44.990;20.288;2023-09-12T07:03:55;12.20;;;6.60;;
76714;SDS011;65644;44.990;20.288;2023-09-12T07:06:21;10.45;;;6.40;;
76714;SDS011;65644;44.990;20.288;2023-09-12T07:08:47;12.27;;;6.47;;
76714;SDS011;65644;44.990;20.288;2023-09-12T07:11:14;12.43;;;6.75;;
76714;SDS011;65644;44.990;20.288;2023-09-12T07:13:40;10.27;;;6.28;;
76714;SDS011;65644;44.990;20.288;2023-09-12T07:16:06;10.98;;;5.93;;
76714;SDS011;65644;44.990;20.288;2023-09-12T07:18:32;11.13;;;6.13;;
76714;SDS011;65644;44.990;20.288;2023-09-12T07:20:59;12.88;;;6.53;;
76714;SDS011;65644;44.990;20.288;2023-09-12T07:23:25;11.35;;;6.10;;
76714;SDS011;65644;44.990;20.288;2023-09-12T07:25:51;12.23;;;5.75;;
76714;SDS011;65644;44.990;20.288;2023-09-12T07:28:18;8.32;;;5.88;;
76714;SDS011;65644;44.990;20.288;2023-09-12T07:30:47;7.63;;;5.75;;
76714;SDS011;65644;44.990;20.288;2023-09-12T07:33:13;10.98;;;5.57;;
76714;SDS011;65644;44.990;20.288;2023-09-12T07:35:39;9.30;;;5.28;;
76714;SDS011;65644;44.990;20.288;2023-09-12T07:38:05;10.15;;;4.97;;
76714;SDS011;65644;44.990;20.288;2023-09-12T07:40:31;11.77;;;5.50;;
76714;SDS011;65644;44.990;20.288;2023-09-12T07:42:57;12.05;;;5.85;;
76714;SDS011;65644;44.990;20.288;2023-09-12T07:45:24;10.40;;;5.45;;
76714;SDS011;65644;44.990;20.288;2023-09-12T07:47:50;10.50;;;5.07;;
76714;SDS011;65644;44.990;20.288;2023-09-12T07:50:16;7.80;;;5.07;;
76714;SDS011;65644;44.990;20.288;2023-09-12T07:52:42;8.23;;;4.50;;
76714;SDS011;65644;44.990;20.288;2023-09-12T07:55:08;9.30;;;4.90;;
76714;SDS011;65644;44.990;20.288;2023-09-12T07:57:34;9.88;;;4.53;;
76714;SDS011;65644;44.990;20.288;2023-09-12T08:00:01;7.72;;;4.50;;
76714;SDS011;65644;44.990;20.288;2023-09-12T08:02:30;9.30;;;4.80;;
76714;SDS011;65644;44.990;20.288;2023-09-12T08:04:56;8.93;;;4.05;;
76714;SDS011;65644;44.990;20.288;2023-09-12T08:07:22;6.10;;;4.45;;
76714;SDS011;65644;44.990;20.288;2023-09-12T08:09:49;8.98;;;4.45;;
76714;SDS011;65644;44.990;20.288;2023-09-12T08:12:15;11.63;;;4.53;;
76714;SDS011;65644;44.990;20.288;2023-09-12T08:14:41;6.18;;;3.90;;
76714;SDS011;65644;44.990;20.288;2023-09-12T08:17:09;6.25;;;4.00;;
76714;SDS011;65644;44.990;20.288;2023-09-12T08:19:35;8.60;;;4.60;;
76714;SDS011;65644;44.990;20.288;2023-09-12T08:22:01;10.15;;;4.57;;
76714;SDS011;65644;44.990;20.288;2023-09-12T08:24:27;10.77;;;4.20;;
76714;SDS011;65644;44.990;20.288;2023-09-12T08:26:53;13.40;;;4.68;;
76714;SDS011;65644;44.990;20.288;2023-09-12T08:29:19;11.35;;;4.72;;
76714;SDS011;65644;44.990;20.288;2023-09-12T08:44:37;7.57;;;4.22;;
76714;SDS011;65644;44.990;20.288;2023-09-12T08:47:03;6.53;;;3.65;;
76714;SDS011;65644;44.990;20.288;2023-09-12T08:49:31;12.43;;;4.75;;
76714;SDS011;65644;44.990;20.288;2023-09-12T08:51:57;7.47;;;3.90;;
76714;SDS011;65644;44.990;20.288;2023-09-12T08:54:23;9.45;;;3.97;;
76714;SDS011;65644;44.990;20.288;2023-09-12T08:56:49;8.27;;;4.03;;
76714;SDS011;65644;44.990;20.288;2023-09-12T08:59:15;8.98;;;4.03;;
76714;SDS011;65644;44.990;20.288;2023-09-12T09:01:42;8.88;;;4.38;;
76714;SDS011;65644;44.990;20.288;2023-09-12T09:04:09;5.88;;;3.60;;
76714;SDS011;65644;44.990;20.288;2023-09-12T09:06:35;8.98;;;3.80;;
76714;SDS011;65644;44.990;20.288;2023-09-12T09:09:04;8.57;;;3.90;;
76714;SDS011;65644;44.990;20.288;2023-09-12T09:11:31;8.75;;;2.90;;
76714;SDS011;65644;44.990;20.288;2023-09-12T09:13:57;9.88;;;3.90;;
76714;SDS011;65644;44.990;20.288;2023-09-12T09:16:23;8.48;;;3.67;;
76714;SDS011;65644;44.990;20.288;2023-09-12T09:21:23;8.30;;;3.80;;
76714;SDS011;65644;44.990;20.288;2023-09-12T09:23:51;8.77;;;3.83;;
76714;SDS011;65644;44.990;20.288;2023-09-12T09:26:17;7.85;;;3.40;;
76714;SDS011;65644;44.990;20.288;2023-09-12T09:28:43;8.07;;;3.60;;
76714;SDS011;65644;44.990;20.288;2023-09-12T09:31:10;10.40;;;3.88;;
76714;SDS011;65644;44.990;20.288;2023-09-12T09:33:36;9.30;;;3.60;;
76714;SDS011;65644;44.990;20.288;2023-09-12T09:36:04;9.20;;;3.58;;
76714;SDS011;65644;44.990;20.288;2023-09-12T09:38:30;10.52;;;3.60;;
76714;SDS011;65644;44.990;20.288;2023-09-12T09:40:56;12.05;;;3.58;;
76714;SDS011;65644;44.990;20.288;2023-09-12T09:43:22;9.80;;;3.35;;
76714;SDS011;65644;44.990;20.288;2023-09-12T09:45:50;6.90;;;3.58;;
76714;SDS011;65644;44.990;20.288;2023-09-12T09:48:23;6.95;;;3.53;;
76714;SDS011;65644;44.990;20.288;2023-09-12T09:50:51;6.25;;;3.05;;
76714;SDS011;65644;44.990;20.288;2023-09-12T09:53:21;7.97;;;3.28;;
76714;SDS011;65644;44.990;20.288;2023-09-12T09:55:47;7.03;;;3.30;;
76714;SDS011;65644;44.990;20.288;2023-09-12T09:58:14;8.32;;;3.67;;
76714;SDS011;65644;44.990;20.288;2023-09-12T10:00:44;6.93;;;3.58;;
76714;SDS011;65644;44.990;20.288;2023-09-12T10:03:10;9.20;;;3.78;;
76714;SDS011;65644;44.990;20.288;2023-09-12T10:05:37;9.57;;;3.33;;
76714;SDS011;65644;44.990;20.288;2023-09-12T10:08:04;6.45;;;3.25;;
76714;SDS011;65644;44.990;20.288;2023-09-12T10:10:33;8.27;;;3.10;;
76714;SDS011;65644;44.990;20.288;2023-09-12T10:13:00;7.85;;;3.70;;
76714;SDS011;65644;44.990;20.288;2023-09-12T10:15:28;8.68;;;3.50;;
76714;SDS011;65644;44.990;20.288;2023-09-12T10:17:56;8.10;;;3.47;;
76714;SDS011;65644;44.990;20.288;2023-09-12T10:20:25;8.18;;;3.55;;
76714;SDS011;65644;44.990;20.288;2023-09-12T10:22:53;6.65;;;3.30;;
76714;SDS011;65644;44.990;20.288;2023-09-12T10:25:22;11.60;;;3.50;;
76714;SDS011;65644;44.990;20.288;2023-09-12T10:27:49;9.23;;;3.88;;
76714;SDS011;65644;44.990;20.288;2023-09-12T10:30:15;6.75;;;3.05;;
76714;SDS011;65644;44.990;20.288;2023-09-12T10:32:44;6.72;;;2.72;;
76714;SDS011;65644;44.990;20.288;2023-09-12T10:35:11;7.22;;;3.67;;
76714;SDS011;65644;44.990;20.288;2023-09-12T10:37:38;7.78;;;3.42;;
76714;SDS011;65644;44.990;20.288;2023-09-12T10:40:08;6.35;;;3.65;;
76714;SDS011;65644;44.990;20.288;2023-09-12T10:42:34;8.07;;;3.70;;
76714;SDS011;65644;44.990;20.288;2023-09-12T10:45:00;7.13;;;3.22;;
76714;SDS011;65644;44.990;20.288;2023-09-12T10:47:28;6.88;;;3.20;;
76714;SDS011;65644;44.990;20.288;2023-09-12T10:49:55;5.75;;;3.30;;
76714;SDS011;65644;44.990;20.288;2023-09-12T10:52:25;6.38;;;3.15;;
76714;SDS011;65644;44.990;20.288;2023-09-12T10:54:51;8.30;;;3.50;;
76714;SDS011;65644;44.990;20.288;2023-09-12T10:57:17;13.00;;;3.33;;
76714;SDS011;65644;44.990;20.288;2023-09-12T11:02:31;6.43;;;2.60;;
76714;SDS011;65644;44.990;20.288;2023-09-12T11:05:04;6.05;;;3.00;;
76714;SDS011;65644;44.990;20.288;2023-09-12T11:07:31;5.30;;;3.00;;
76714;SDS011;65644;44.990;20.288;2023-09-12T11:12:46;9.27;;;3.63;;
76714;SDS011;65644;44.990;20.288;2023-09-12T11:15:12;9.23;;;3.47;;
76714;SDS011;65644;44.990;20.288;2023-09-12T11:17:43;5.32;;;2.97;;
76714;SDS011;65644;44.990;20.288;2023-09-12T11:20:09;7.28;;;3.10;;
76714;SDS011;65644;44.990;20.288;2023-09-12T11:22:39;8.38;;;2.95;;
76714;SDS011;65644;44.990;20.288;2023-09-12T11:25:18;6.00;;;2.97;;
76714;SDS011;65644;44.990;20.288;2023-09-12T11:27:45;9.35;;;3.22;;
76714;SDS011;65644;44.990;20.288;2023-09-12T11:30:12;8.65;;;3.28;;
76714;SDS011;65644;44.990;20.288;2023-09-12T11:32:39;8.00;;;3.50;;
76714;SDS011;65644;44.990;20.288;2023-09-12T11:35:05;9.80;;;3.72;;
76714;SDS011;65644;44.990;20.288;2023-09-12T11:37:32;4.40;;;2.95;;
76714;SDS011;65644;44.990;20.288;2023-09-12T11:39:58;8.35;;;3.10;;
76714;SDS011;65644;44.990;20.288;2023-09-12T11:42:24;10.18;;;3.03;;
76714;SDS011;65644;44.990;20.288;2023-09-12T11:44:51;7.28;;;3.30;;
76714;SDS011;65644;44.990;20.288;2023-09-12T11:47:17;5.47;;;2.67;;
76714;SDS011;65644;44.990;20.288;2023-09-12T11:49:44;10.35;;;3.92;;
76714;SDS011;65644;44.990;20.288;2023-09-12T11:52:10;6.45;;;3.25;;
76714;SDS011;65644;44.990;20.288;2023-09-12T11:54:38;9.10;;;3.15;;
76714;SDS011;65644;44.990;20.288;2023-09-12T11:57:04;5.72;;;3.10;;
76714;SDS011;65644;44.990;20.288;2023-09-12T11:59:30;8.52;;;3.65;;
76714;SDS011;65644;44.990;20.288;2023-09-12T12:01:56;14.20;;;3.40;;
76714;SDS011;65644;44.990;20.288;2023-09-12T12:04:23;7.85;;;3.08;;
76714;SDS011;65644;44.990;20.288;2023-09-12T12:06:50;8.48;;;3.40;;
76714;SDS011;65644;44.990;20.288;2023-09-12T12:09:17;8.73;;;3.75;;
76714;SDS011;65644;44.990;20.288;2023-09-12T12:11:44;8.15;;;3.70;;
76714;SDS011;65644;44.990;20.288;2023-09-12T12:14:12;9.27;;;3.35;;
76714;SDS011;65644;44.990;20.288;2023-09-12T12:16:40;13.93;;;3.38;;
76714;SDS011;65644;44.990;20.288;2023-09-12T12:19:07;6.97;;;4.82;;
76714;SDS011;65644;44.990;20.288;2023-09-12T12:21:33;16.67;;;10.40;;
76714;SDS011;65644;44.990;20.288;2023-09-12T12:24:00;21.65;;;17.08;;
76714;SDS011;65644;44.990;20.288;2023-09-12T12:26:26;9.30;;;4.07;;
76714;SDS011;65644;44.990;20.288;2023-09-12T12:28:52;6.22;;;3.10;;
76714;SDS011;65644;44.990;20.288;2023-09-12T12:31:19;7.22;;;3.20;;
76714;SDS011;65644;44.990;20.288;2023-09-12T12:33:50;9.52;;;3.30;;
76714;SDS011;65644;44.990;20.288;2023-09-12T12:36:16;9.30;;;3.30;;
76714;SDS011;65644;44.990;20.288;2023-09-12T12:38:42;7.85;;;2.95;;
76714;SDS011;65644;44.990;20.288;2023-09-12T12:41:11;8.23;;;4.50;;
76714;SDS011;65644;44.990;20.288;2023-09-12T12:43:39;12.50;;;8.38;;
76714;SDS011;65644;44.990;20.288;2023-09-12T12:46:09;5.72;;;3.55;;
76714;SDS011;65644;44.990;20.288;2023-09-12T12:48:35;8.77;;;2.47;;
76714;SDS011;65644;44.990;20.288;2023-09-12T12:51:17;7.20;;;3.00;;
76714;SDS011;65644;44.990;20.288;2023-09-12T12:53:45;8.43;;;3.15;;
76714;SDS011;65644;44.990;20.288;2023-09-12T12:56:12;7.20;;;3.40;;
76714;SDS011;65644;44.990;20.288;2023-09-12T12:58:39;7.72;;;2.67;;
76714;SDS011;65644;44.990;20.288;2023-09-12T13:01:05;10.30;;;3.33;;
76714;SDS011;65644;44.990;20.288;2023-09-12T13:03:31;7.85;;;3.70;;
76714;SDS011;65644;44.990;20.288;2023-09-12T13:05:57;8.52;;;3.40;;
76714;SDS011;65644;44.990;20.288;2023-09-12T13:08:24;5.18;;;3.08;;
76714;SDS011;65644;44.990;20.288;2023-09-12T13:10:50;5.47;;;3.10;;
76714;SDS011;65644;44.990;20.288;2023-09-12T13:13:16;6.20;;;3.03;;
76714;SDS011;65644;44.990;20.288;2023-09-12T13:15:42;6.30;;;2.88;;
76714;SDS011;65644;44.990;20.288;2023-09-12T13:18:09;9.18;;;3.15;;
76714;SDS011;65644;44.990;20.288;2023-09-12T13:20:35;6.45;;;2.78;;
76714;SDS011;65644;44.990;20.288;2023-09-12T13:23:01;5.15;;;3.38;;
76714;SDS011;65644;44.990;20.288;2023-09-12T13:25:27;9.85;;;3.03;;
76714;SDS011;65644;44.990;20.288;2023-09-12T13:27:53;9.27;;;3.25;;
76714;SDS011;65644;44.990;20.288;2023-09-12T13:30:19;10.15;;;2.80;;
76714;SDS011;65644;44.990;20.288;2023-09-12T13:32:45;9.93;;;3.50;;
76714;SDS011;65644;44.990;20.288;2023-09-12T13:35:11;8.02;;;2.72;;
76714;SDS011;65644;44.990;20.288;2023-09-12T13:37:37;7.25;;;2.95;;
76714;SDS011;65644;44.990;20.288;2023-09-12T13:40:03;7.07;;;2.58;;
76714;SDS011;65644;44.990;20.288;2023-09-12T13:42:31;8.85;;;3.13;;
76714;SDS011;65644;44.990;20.288;2023-09-12T13:44:57;8.35;;;2.72;;
76714;SDS011;65644;44.990;20.288;2023-09-12T13:47:23;7.65;;;2.53;;
76714;SDS011;65644;44.990;20.288;2023-09-12T13:49:50;4.97;;;2.70;;
76714;SDS011;65644;44.990;20.288;2023-09-12T13:52:18;7.45;;;2.53;;
76714;SDS011;65644;44.990;20.288;2023-09-12T13:54:45;11.32;;;2.25;;
76714;SDS011;65644;44.990;20.288;2023-09-12T13:57:11;9.88;;;2.70;;
76714;SDS011;65644;44.990;20.288;2023-09-12T13:59:37;5.82;;;2.83;;
76714;SDS011;65644;44.990;20.288;2023-09-12T14:02:03;7.05;;;2.88;;
76714;SDS011;65644;44.990;20.288;2023-09-12T14:04:29;5.15;;;2.45;;
76714;SDS011;65644;44.990;20.288;2023-09-12T14:06:55;7.18;;;2.00;;
76714;SDS011;65644;44.990;20.288;2023-09-12T14:09:21;10.55;;;3.13;;
76714;SDS011;65644;44.990;20.288;2023-09-12T14:11:47;10.75;;;3.08;;
76714;SDS011;65644;44.990;20.288;2023-09-12T14:14:13;10.80;;;2.50;;
76714;SDS011;65644;44.990;20.288;2023-09-12T14:16:39;8.23;;;2.70;;
76714;SDS011;65644;44.990;20.288;2023-09-12T14:19:05;5.85;;;2.30;;
76714;SDS011;65644;44.990;20.288;2023-09-12T14:21:31;5.15;;;2.13;;
76714;SDS011;65644;44.990;20.288;2023-09-12T14:23:57;7.00;;;2.70;;
76714;SDS011;65644;44.990;20.288;2023-09-12T14:26:24;7.97;;;2.47;;
76714;SDS011;65644;44.990;20.288;2023-09-12T14:28:50;7.47;;;2.42;;
76714;SDS011;65644;44.990;20.288;2023-09-12T14:31:16;9.57;;;2.55;;
76714;SDS011;65644;44.990;20.288;2023-09-12T14:33:42;7.88;;;2.33;;
76714;SDS011;65644;44.990;20.288;2023-09-12T14:36:08;10.60;;;2.58;;
76714;SDS011;65644;44.990;20.288;2023-09-12T14:38:35;7.32;;;2.25;;
76714;SDS011;65644;44.990;20.288;2023-09-12T14:41:01;10.65;;;2.45;;
76714;SDS011;65644;44.990;20.288;2023-09-12T14:43:28;7.80;;;2.78;;
76714;SDS011;65644;44.990;20.288;2023-09-12T14:45:54;9.43;;;2.35;;
76714;SDS011;65644;44.990;20.288;2023-09-12T14:48:20;6.72;;;2.22;;
76714;SDS011;65644;44.990;20.288;2023-09-12T14:50:47;4.63;;;2.08;;